FSIA

Seychelles International Airport

Mahe Island, Seychelles
METAR FSIA 180000Z 13008KT 9999 SCT017 27/24 Q1010 NOSIG
Observed Flight Rules
Oct-18 @ 00:00 UTC (45 minutes ago) Visual Flight Rules
Wind Visibility Clouds
130° at 8 knots 10,000+ meters
  • Scattered at 1,700' AGL
Temperatures Readings
Current 27°C / 81°F
Dewpoint 24°C / 75°F
Humidity 84%
Altimeter 29.82" Hg
Pressure 1010 hPa
Elevation 3
METAR FSIA 180000Z 13008KT 9999 SCT017 27/24 Q1010 NOSIG
Observed Flight Rules
Oct-18 @ 00:00 UTC
(45 minutes ago)
VFR
Wind Visibility
130° at 8 knots 10,000+ meters
Clouds
  • Scattered at 1,700' AGL
Temperature Dewpoint
27°C / 81°F 24°C / 75°F
Humidity Altimeter Pressure
84% 29.82" Hg 1010 hPa